createdAt,value
2023-03-06T00:01:19.274Z,70.86
2023-03-06T00:03:48.065Z,70.96
2023-03-06T00:06:16.753Z,70.99
2023-03-06T00:08:45.436Z,71.36
2023-03-06T00:11:15.438Z,71.38
2023-03-06T00:13:44.045Z,72.76
2023-03-06T00:16:14.015Z,71.30
2023-03-06T00:18:44.034Z,71.07
2023-03-06T00:21:12.712Z,71.21
2023-03-06T00:23:41.852Z,71.24
2023-03-06T00:26:10.693Z,71.83
2023-03-06T00:28:39.412Z,72.77
2023-03-06T00:31:08.085Z,72.36
2023-03-06T00:33:38.090Z,72.35
2023-03-06T00:36:07.382Z,73.35
2023-03-06T00:38:37.137Z,73.25
2023-03-06T00:41:09.976Z,72.54
2023-03-06T00:43:38.624Z,72.43
2023-03-06T00:46:07.632Z,72.78
2023-03-06T00:48:36.435Z,72.06
2023-03-06T00:51:07.032Z,72.44
2023-03-06T00:53:35.685Z,73.15
2023-03-06T00:56:04.277Z,74.15
2023-03-06T00:58:32.912Z,75.12
2023-03-06T01:01:01.552Z,74.67
2023-03-06T01:03:30.172Z,74.39
2023-03-06T01:05:59.274Z,73.82
2023-03-06T01:08:29.272Z,72.82
2023-03-06T01:10:57.889Z,73.22
2023-03-06T01:13:26.490Z,72.84
2023-03-06T01:15:55.108Z,73.77
2023-03-06T01:18:23.931Z,73.99
2023-03-06T01:20:52.550Z,74.02
2023-03-06T01:23:21.154Z,74.05
2023-03-06T01:25:51.091Z,74.24
2023-03-06T01:28:19.725Z,74.28
2023-03-06T01:30:48.440Z,74.12
2023-03-06T01:33:17.253Z,74.44
2023-03-06T01:35:45.990Z,74.09
2023-03-06T01:38:14.827Z,74.52
2023-03-06T01:40:43.415Z,75.86
2023-03-06T01:43:27.075Z,75.33
2023-03-06T01:46:27.525Z,74.61
2023-03-06T01:48:58.110Z,73.90
2023-03-06T01:51:29.683Z,73.58
2023-03-06T01:54:00.136Z,73.17
2023-03-06T01:56:29.886Z,74.12
2023-03-06T01:58:59.868Z,75.00
2023-03-06T02:01:28.805Z,75.45
2023-03-06T02:03:57.505Z,75.82
2023-03-06T02:06:26.311Z,75.39
2023-03-06T02:08:55.513Z,76.15
2023-03-06T02:11:25.284Z,76.37
2023-03-06T02:13:54.893Z,76.70
2023-03-06T02:16:26.902Z,76.63
2023-03-06T02:18:55.841Z,76.91
2023-03-06T02:21:26.606Z,76.61
2023-03-06T02:24:07.895Z,76.95
2023-03-06T02:26:38.996Z,76.44
2023-03-06T02:29:08.623Z,77.47
2023-03-06T02:31:37.453Z,77.02
2023-03-06T02:34:09.794Z,78.20
2023-03-06T02:36:42.925Z,78.37
2023-03-06T02:39:11.622Z,77.83
2023-03-06T02:41:41.899Z,78.23
2023-03-06T02:44:10.544Z,77.81
2023-03-06T02:46:39.167Z,77.55
2023-03-06T02:49:07.816Z,77.14
2023-03-06T02:51:36.411Z,77.77
2023-03-06T02:54:05.300Z,77.14
2023-03-06T02:56:33.939Z,76.45
2023-03-06T02:59:04.053Z,75.84
2023-03-06T03:01:32.849Z,75.60
2023-03-06T03:04:01.540Z,75.99
2023-03-06T03:06:30.204Z,76.18
2023-03-06T03:08:58.854Z,74.94
2023-03-06T03:11:27.520Z,75.87
2023-03-06T03:13:56.148Z,76.06
2023-03-06T03:16:26.067Z,75.41
2023-03-06T03:18:54.704Z,76.03
2023-03-06T03:21:23.257Z,75.58
2023-03-06T03:23:51.841Z,76.08
2023-03-06T03:26:21.794Z,75.82
2023-03-06T03:28:50.410Z,77.69
2023-03-06T03:31:19.102Z,77.53
2023-03-06T03:33:49.041Z,77.85
2023-03-06T03:36:17.621Z,78.02
2023-03-06T03:38:46.221Z,77.45
2023-03-06T03:41:14.861Z,77.73
2023-03-06T03:43:43.967Z,78.30
2023-03-06T03:46:12.618Z,77.52
2023-03-06T03:48:41.276Z,77.25
2023-03-06T03:51:12.775Z,78.15
2023-03-06T03:53:41.394Z,78.12
2023-03-06T03:56:10.092Z,77.43
2023-03-06T03:58:38.827Z,77.18
2023-03-06T04:01:07.776Z,77.39
2023-03-06T04:03:36.473Z,77.50
2023-03-06T04:06:05.236Z,77.52
2023-03-06T04:08:35.513Z,78.35
2023-03-06T04:11:04.260Z,78.39
2023-03-06T04:13:33.128Z,78.29
2023-03-06T04:16:01.787Z,78.45
2023-03-06T04:18:30.418Z,78.76
2023-03-06T04:20:59.061Z,79.06
2023-03-06T04:23:27.879Z,79.39
2023-03-06T04:25:57.905Z,79.57
2023-03-06T04:28:27.140Z,79.81
2023-03-06T04:30:55.711Z,79.21
2023-03-06T04:33:24.553Z,80.28
2023-03-06T04:35:53.240Z,79.16
2023-03-06T04:38:21.897Z,78.26
2023-03-06T04:40:50.589Z,78.75
2023-03-06T04:43:20.846Z,78.76
2023-03-06T04:45:49.501Z,80.04
2023-03-06T04:48:19.716Z,79.46
2023-03-06T04:50:48.452Z,79.40
2023-03-06T04:53:19.553Z,79.60
2023-03-06T04:55:48.383Z,79.26
2023-03-06T04:58:16.968Z,79.39
2023-03-06T05:00:47.022Z,80.93
2023-03-06T05:03:15.727Z,80.02
2023-03-06T05:05:44.477Z,80.10
2023-03-06T05:08:15.252Z,79.80
2023-03-06T05:10:44.162Z,79.96
2023-03-06T05:13:12.849Z,80.46
2023-03-06T05:15:42.005Z,79.79
2023-03-06T05:18:11.969Z,79.47
2023-03-06T05:20:40.603Z,79.77
2023-03-06T05:23:09.300Z,80.01
2023-03-06T05:25:39.581Z,80.40
2023-03-06T05:28:08.702Z,80.40
2023-03-06T05:30:37.754Z,80.63
2023-03-06T05:33:06.379Z,79.65
2023-03-06T05:35:36.397Z,79.21
2023-03-06T05:38:05.085Z,79.68
2023-03-06T05:40:33.707Z,78.17
2023-03-06T05:43:02.345Z,78.04
2023-03-06T05:45:30.948Z,78.81
2023-03-06T05:47:59.580Z,79.47
2023-03-06T05:50:28.576Z,80.43
2023-03-06T05:52:58.513Z,79.67
2023-03-06T05:55:27.221Z,80.48
2023-03-06T05:57:55.902Z,79.82
2023-03-06T06:00:25.306Z,80.30
2023-03-06T06:02:54.330Z,80.70
2023-03-06T06:05:22.928Z,80.89
2023-03-06T06:07:51.595Z,81.38
2023-03-06T06:10:22.712Z,80.86
2023-03-06T06:12:51.368Z,80.43
2023-03-06T06:15:20.367Z,78.76
2023-03-06T06:17:49.033Z,79.15
2023-03-06T06:20:17.872Z,78.67
2023-03-06T06:22:46.470Z,79.23
2023-03-06T06:25:15.512Z,79.92
2023-03-06T06:27:45.435Z,79.99
2023-03-06T06:30:14.835Z,79.87
2023-03-06T06:32:43.616Z,81.53
2023-03-06T06:35:12.489Z,80.30
2023-03-06T06:37:41.160Z,79.77
2023-03-06T06:40:12.203Z,79.91
2023-03-06T06:42:40.775Z,78.98
2023-03-06T06:45:12.138Z,79.10
2023-03-06T06:47:41.604Z,78.12
2023-03-06T06:50:13.335Z,77.23
2023-03-06T06:52:41.951Z,77.06
2023-03-06T06:55:11.483Z,79.47
2023-03-06T06:57:41.125Z,78.61
2023-03-06T07:00:14.499Z,78.79
2023-03-06T07:02:43.166Z,77.84
2023-03-06T07:05:11.990Z,77.93
2023-03-06T07:07:40.662Z,78.16
2023-03-06T07:10:15.433Z,75.17
2023-03-06T07:12:44.247Z,76.94
2023-03-06T07:15:16.078Z,77.59
2023-03-06T07:17:44.720Z,77.17
2023-03-06T07:20:13.352Z,77.30
2023-03-06T07:22:50.915Z,77.54
2023-03-06T07:25:20.746Z,78.14
2023-03-06T07:27:53.898Z,78.75
2023-03-06T07:30:24.751Z,78.34
2023-03-06T07:32:55.023Z,78.27
2023-03-06T07:35:25.090Z,78.98
2023-03-06T07:37:53.972Z,78.86
2023-03-06T07:40:22.824Z,78.91
2023-03-06T07:42:54.280Z,78.18
2023-03-06T07:45:24.772Z,78.41
2023-03-06T07:47:54.152Z,78.44
2023-03-06T07:50:22.880Z,78.66
2023-03-06T07:52:52.014Z,77.56
2023-03-06T07:55:21.070Z,77.97
2023-03-06T07:57:51.327Z,77.76
2023-03-06T08:00:20.740Z,77.06
2023-03-06T08:02:50.724Z,76.89
2023-03-06T08:05:19.619Z,77.03
2023-03-06T08:07:48.239Z,77.03
2023-03-06T08:10:18.172Z,76.47
2023-03-06T08:12:46.910Z,77.01
2023-03-06T08:15:15.671Z,77.10
2023-03-06T08:17:44.592Z,76.80
2023-03-06T08:20:15.400Z,76.35
2023-03-06T08:22:43.998Z,75.33
2023-03-06T08:25:13.361Z,74.72
2023-03-06T08:27:42.120Z,73.99
2023-03-06T08:30:11.803Z,72.50
2023-03-06T08:32:40.494Z,70.80
2023-03-06T08:35:09.812Z,70.75
2023-03-06T08:37:39.835Z,69.85
2023-03-06T08:40:10.101Z,69.85
2023-03-06T08:42:38.764Z,69.48
2023-03-06T08:45:08.827Z,68.38
2023-03-06T08:47:37.434Z,67.79
2023-03-06T08:50:06.618Z,68.62
2023-03-06T08:52:35.268Z,67.16
2023-03-06T08:55:05.970Z,66.43
2023-03-06T08:57:34.648Z,66.10
2023-03-06T09:00:05.927Z,67.18
2023-03-06T09:02:34.666Z,66.02
2023-03-06T09:05:05.872Z,66.15
2023-03-06T09:07:34.811Z,64.70
2023-03-06T09:10:05.339Z,64.14
2023-03-06T09:12:47.381Z,63.91
2023-03-06T09:15:18.322Z,62.28
2023-03-06T09:17:47.322Z,61.96
2023-03-06T09:20:16.460Z,60.92
2023-03-06T09:22:45.600Z,60.10
2023-03-06T09:25:20.164Z,58.51
2023-03-06T09:27:58.365Z,58.47
2023-03-06T09:30:33.976Z,60.64
2023-03-06T09:33:02.657Z,59.21
2023-03-06T09:35:31.264Z,58.41
2023-03-06T09:37:59.893Z,59.31
2023-03-06T09:40:38.471Z,59.60
2023-03-06T09:43:07.145Z,58.99
2023-03-06T09:45:37.569Z,59.32
2023-03-06T09:48:11.988Z,58.81
2023-03-06T09:50:44.514Z,58.82
2023-03-06T09:53:21.837Z,59.23
2023-03-06T09:55:59.117Z,59.50
2023-03-06T09:58:28.800Z,59.26
2023-03-06T10:01:01.552Z,58.75
2023-03-06T10:03:32.732Z,59.61
2023-03-06T10:06:04.220Z,58.11
2023-03-06T10:08:42.313Z,59.02
2023-03-06T10:11:14.372Z,58.15
2023-03-06T10:13:45.256Z,58.69
2023-03-06T10:16:23.132Z,58.49
2023-03-06T10:18:52.012Z,58.65
2023-03-06T10:21:31.370Z,59.07
2023-03-06T10:24:06.277Z,58.09
2023-03-06T10:26:39.273Z,58.82
2023-03-06T10:29:23.336Z,57.65
2023-03-06T10:32:00.171Z,58.49
2023-03-06T10:34:31.061Z,58.03
2023-03-06T10:37:00.193Z,58.71
2023-03-06T10:39:30.666Z,56.83
2023-03-06T10:42:00.846Z,57.74
2023-03-06T10:44:29.584Z,57.60
2023-03-06T10:46:58.216Z,57.13
2023-03-06T10:49:33.720Z,56.46
2023-03-06T10:52:06.707Z,56.90
2023-03-06T10:54:36.621Z,56.78
2023-03-06T10:57:24.984Z,56.70
2023-03-06T10:59:55.380Z,56.49
2023-03-06T11:02:29.489Z,56.39
2023-03-06T11:04:59.495Z,56.24
2023-03-06T11:07:29.295Z,55.78
2023-03-06T11:10:13.666Z,56.18
2023-03-06T11:12:44.477Z,57.08
2023-03-06T11:15:22.431Z,57.42
2023-03-06T11:18:02.872Z,57.53
2023-03-06T11:20:50.024Z,58.15
2023-03-06T11:23:22.327Z,57.26
2023-03-06T11:25:54.778Z,57.59
2023-03-06T11:28:27.584Z,56.63
2023-03-06T11:30:59.956Z,56.84
2023-03-06T11:33:32.199Z,56.30
2023-03-06T11:36:06.298Z,57.83
2023-03-06T11:38:40.709Z,57.71
2023-03-06T11:41:16.303Z,56.23
2023-03-06T11:43:52.438Z,56.88
2023-03-06T11:46:23.811Z,55.89
2023-03-06T11:48:54.968Z,56.14
2023-03-06T11:51:25.862Z,56.90
2023-03-06T11:53:54.944Z,56.88
2023-03-06T11:56:32.790Z,55.74
2023-03-06T11:59:21.642Z,55.60
2023-03-06T12:01:57.605Z,55.26
2023-03-06T12:04:39.177Z,55.14
2023-03-06T12:07:21.506Z,55.62
2023-03-06T12:09:56.112Z,55.06
2023-03-06T12:12:50.750Z,54.95
2023-03-06T12:15:24.780Z,54.34
2023-03-06T12:18:05.053Z,54.25
2023-03-06T12:20:43.871Z,55.26
2023-03-06T12:23:21.032Z,53.75
2023-03-06T12:25:53.457Z,53.59
2023-03-06T12:28:32.970Z,51.70
2023-03-06T12:31:33.174Z,52.24
2023-03-06T12:34:08.762Z,52.99
2023-03-06T12:36:47.721Z,53.13
2023-03-06T12:39:18.970Z,52.60
2023-03-06T12:41:54.252Z,52.45
2023-03-06T12:44:44.093Z,51.45
2023-03-06T12:47:16.741Z,52.46
2023-03-06T12:49:50.845Z,52.60
2023-03-06T12:52:29.708Z,50.60
2023-03-06T12:55:00.163Z,51.72
2023-03-06T12:57:28.995Z,51.57
2023-03-06T12:59:57.657Z,50.65
2023-03-06T13:02:55.279Z,51.81
2023-03-06T13:05:39.473Z,52.08
2023-03-06T13:08:26.625Z,51.94
2023-03-06T13:11:16.161Z,52.27
2023-03-06T13:13:46.260Z,52.25
2023-03-06T13:16:15.741Z,51.93
2023-03-06T13:18:51.519Z,52.81
2023-03-06T13:21:45.544Z,52.75
2023-03-06T13:24:19.113Z,52.99
2023-03-06T13:26:59.454Z,52.49
2023-03-06T13:30:09.658Z,53.31
2023-03-06T13:32:38.365Z,50.78
2023-03-06T13:35:49.462Z,51.44
2023-03-06T13:38:34.445Z,51.60
2023-03-06T13:41:40.317Z,52.30
2023-03-06T13:44:42.392Z,52.08
2023-03-06T13:48:10.946Z,52.48
2023-03-06T13:50:41.313Z,51.72
2023-03-06T13:53:52.655Z,52.55
2023-03-06T13:56:52.593Z,52.63
2023-03-06T14:00:10.295Z,52.20
2023-03-06T14:02:52.613Z,52.11
2023-03-06T14:05:21.361Z,52.10
2023-03-06T14:08:03.679Z,52.53
2023-03-06T14:10:34.655Z,52.30
2023-03-06T14:13:07.052Z,52.54
2023-03-06T14:15:44.482Z,52.64
2023-03-06T14:18:19.968Z,52.90
2023-03-06T14:20:52.736Z,51.53
2023-03-06T14:23:28.038Z,51.75
2023-03-06T14:26:00.904Z,53.15
2023-03-06T14:28:32.286Z,51.48
2023-03-06T14:31:02.251Z,50.98
2023-03-06T14:33:34.275Z,50.51
2023-03-06T14:36:04.606Z,52.18
2023-03-06T14:38:36.662Z,52.00
2023-03-06T14:41:06.247Z,52.01
2023-03-06T14:43:36.282Z,50.43
2023-03-06T14:46:07.840Z,51.47
2023-03-06T14:48:40.130Z,50.84
2023-03-06T14:51:15.436Z,50.82
2023-03-06T14:53:45.510Z,51.35
2023-03-06T14:56:17.781Z,50.99
2023-03-06T14:58:53.016Z,50.60
2023-03-06T15:01:30.510Z,50.31
2023-03-06T15:04:00.888Z,50.49
2023-03-06T15:06:34.460Z,50.68
2023-03-06T15:09:07.936Z,50.66
2023-03-06T15:11:56.956Z,51.35
2023-03-06T15:14:32.913Z,50.59
2023-03-06T15:17:23.818Z,50.32
2023-03-06T15:19:54.454Z,50.56
2023-03-06T15:22:29.166Z,50.54
2023-03-06T15:25:26.664Z,51.22
2023-03-06T15:27:56.759Z,50.98
2023-03-06T15:30:29.531Z,51.44
2023-03-06T15:33:12.174Z,50.81
2023-03-06T15:35:41.034Z,51.89
2023-03-06T15:38:25.385Z,50.84
2023-03-06T15:40:58.610Z,51.38
2023-03-06T15:43:28.633Z,51.03
2023-03-06T15:46:00.447Z,52.24
2023-03-06T15:48:29.366Z,52.08
2023-03-06T15:50:58.075Z,52.66
2023-03-06T15:53:26.786Z,52.44
2023-03-06T15:55:55.661Z,52.69
2023-03-06T15:58:26.810Z,52.54
2023-03-06T16:00:55.472Z,52.67
2023-03-06T16:03:25.589Z,53.68
2023-03-06T16:05:54.256Z,54.74
2023-03-06T16:08:22.925Z,54.97
2023-03-06T16:10:52.430Z,55.37
2023-03-06T16:13:27.225Z,55.08
2023-03-06T16:15:56.066Z,55.87
2023-03-06T16:18:26.055Z,56.39
2023-03-06T16:20:54.705Z,57.13
2023-03-06T16:23:23.416Z,57.05
2023-03-06T16:25:52.140Z,57.50
2023-03-06T16:28:20.930Z,57.81
2023-03-06T16:30:49.554Z,58.12
2023-03-06T16:33:18.372Z,57.82
2023-03-06T16:35:49.862Z,57.88
2023-03-06T16:38:18.579Z,58.29
2023-03-06T16:40:47.187Z,58.68
2023-03-06T16:43:16.481Z,58.41
2023-03-06T16:45:45.229Z,59.08
2023-03-06T16:48:17.890Z,60.03
2023-03-06T16:50:47.970Z,59.92
2023-03-06T16:53:16.636Z,60.48
2023-03-06T16:55:46.389Z,60.21
2023-03-06T16:58:15.248Z,60.91
2023-03-06T17:00:43.886Z,61.37
2023-03-06T17:03:12.598Z,60.75
2023-03-06T17:05:43.685Z,61.55
2023-03-06T17:08:14.071Z,61.35
2023-03-06T17:10:43.177Z,61.96
2023-03-06T17:13:12.412Z,61.70
2023-03-06T17:15:41.060Z,61.74
2023-03-06T17:18:09.671Z,62.08
2023-03-06T17:20:38.517Z,61.77
2023-03-06T17:23:07.172Z,61.99
2023-03-06T17:25:38.398Z,62.72
2023-03-06T17:28:07.049Z,62.39
2023-03-06T17:30:35.678Z,62.84
2023-03-06T17:33:04.518Z,63.58
2023-03-06T17:35:35.362Z,63.37
2023-03-06T17:38:04.450Z,63.81
2023-03-06T17:40:34.774Z,64.53
2023-03-06T17:43:04.767Z,66.08
2023-03-06T17:45:36.768Z,65.65
2023-03-06T17:48:05.778Z,65.91
2023-03-06T17:50:34.387Z,65.93
2023-03-06T17:53:03.033Z,66.50
2023-03-06T17:55:31.852Z,66.54
2023-03-06T17:58:00.651Z,66.60
2023-03-06T18:00:30.715Z,66.69
2023-03-06T18:02:59.319Z,67.03
2023-03-06T18:05:28.025Z,67.18
2023-03-06T18:07:56.694Z,67.18
2023-03-06T18:10:25.571Z,67.03
2023-03-06T18:12:54.290Z,68.09
2023-03-06T18:15:22.960Z,67.78
2023-03-06T18:17:52.954Z,68.02
2023-03-06T18:20:22.197Z,67.88
2023-03-06T18:22:50.849Z,67.67
2023-03-06T18:25:19.805Z,67.70
2023-03-06T18:27:48.733Z,67.82
2023-03-06T18:30:18.061Z,67.76
2023-03-06T18:32:46.714Z,68.28
2023-03-06T18:35:16.822Z,68.09
2023-03-06T18:37:45.490Z,67.83
2023-03-06T18:40:15.159Z,67.49
2023-03-06T18:42:43.836Z,67.32
2023-03-06T18:45:13.245Z,66.79
2023-03-06T18:47:42.217Z,66.22
2023-03-06T18:50:16.412Z,67.12
2023-03-06T18:52:46.538Z,67.14
2023-03-06T18:55:15.377Z,67.08
2023-03-06T18:57:43.986Z,67.36
2023-03-06T19:00:13.621Z,67.74
2023-03-06T19:02:42.292Z,67.10
2023-03-06T19:05:11.125Z,66.78
2023-03-06T19:07:40.360Z,66.64
2023-03-06T19:10:11.996Z,66.34
2023-03-06T19:12:40.653Z,66.99
2023-03-06T19:15:10.252Z,67.51
2023-03-06T19:17:38.938Z,67.02
2023-03-06T19:20:08.582Z,67.75
2023-03-06T19:22:37.355Z,67.10
2023-03-06T19:25:07.798Z,66.58
2023-03-06T19:27:39.409Z,66.47
2023-03-06T19:30:09.611Z,66.95
2023-03-06T19:32:38.332Z,66.89
2023-03-06T19:35:07.788Z,67.16
2023-03-06T19:37:36.427Z,67.08
2023-03-06T19:40:06.264Z,67.27
2023-03-06T19:42:34.932Z,67.00
2023-03-06T19:45:05.554Z,66.76
2023-03-06T19:47:34.216Z,66.91
2023-03-06T19:50:02.892Z,67.48
2023-03-06T19:52:31.667Z,66.74
2023-03-06T19:55:00.461Z,66.83
2023-03-06T19:57:29.365Z,67.01
2023-03-06T19:59:58.760Z,66.87
2023-03-06T20:02:29.199Z,66.75
2023-03-06T20:04:57.908Z,66.15
2023-03-06T20:07:26.632Z,67.21
2023-03-06T20:10:00.221Z,66.98
2023-03-06T20:12:28.959Z,66.83
2023-03-06T20:14:57.622Z,66.82
2023-03-06T20:17:26.344Z,66.87
2023-03-06T20:19:56.652Z,66.82
2023-03-06T20:22:25.474Z,65.66
2023-03-06T20:24:54.364Z,65.48
2023-03-06T20:27:23.098Z,65.91
2023-03-06T20:29:51.940Z,65.79
2023-03-06T20:32:20.967Z,65.59
2023-03-06T20:34:49.924Z,66.37
2023-03-06T20:37:19.953Z,65.20
2023-03-06T20:39:48.684Z,64.62
2023-03-06T20:42:17.702Z,65.19
2023-03-06T20:44:46.402Z,65.64
2023-03-06T20:47:15.411Z,64.45
2023-03-06T20:49:44.019Z,64.99
2023-03-06T20:52:12.772Z,65.07
2023-03-06T20:54:42.784Z,64.74
2023-03-06T20:57:11.447Z,64.77
2023-03-06T20:59:40.221Z,65.26
2023-03-06T21:02:10.650Z,65.40
2023-03-06T21:04:41.029Z,65.23
2023-03-06T21:07:09.837Z,65.81
2023-03-06T21:09:39.634Z,65.21
2023-03-06T21:12:09.658Z,65.29
2023-03-06T21:14:38.390Z,66.13
2023-03-06T21:17:07.080Z,66.00
2023-03-06T21:19:37.019Z,65.79
2023-03-06T21:22:05.612Z,66.03
2023-03-06T21:24:34.248Z,66.04
2023-03-06T21:27:03.601Z,66.65
2023-03-06T21:29:33.575Z,66.85
2023-03-06T21:32:02.206Z,67.77
2023-03-06T21:34:30.918Z,67.58
2023-03-06T21:36:59.547Z,67.85
2023-03-06T21:39:28.300Z,67.82
2023-03-06T21:41:56.960Z,67.31
2023-03-06T21:44:25.659Z,67.66
2023-03-06T21:46:56.040Z,68.35
2023-03-06T21:49:26.261Z,69.10
2023-03-06T21:51:54.917Z,68.89
2023-03-06T21:54:23.533Z,69.28
2023-03-06T21:56:52.391Z,69.34
2023-03-06T21:59:21.006Z,68.81
2023-03-06T22:01:49.696Z,69.25
2023-03-06T22:04:19.871Z,69.37
2023-03-06T22:06:48.590Z,70.00
2023-03-06T22:09:19.040Z,70.13
2023-03-06T22:11:47.911Z,70.59
2023-03-06T22:14:16.872Z,69.97
2023-03-06T22:16:45.534Z,70.58
2023-03-06T22:19:14.284Z,70.70
2023-03-06T22:21:44.334Z,70.47
2023-03-06T22:24:12.924Z,70.03
2023-03-06T22:26:41.578Z,70.11
2023-03-06T22:29:10.335Z,70.05
2023-03-06T22:31:40.381Z,70.07
2023-03-06T22:34:09.231Z,70.96
2023-03-06T22:36:37.843Z,71.25
2023-03-06T22:39:07.823Z,70.70
2023-03-06T22:41:36.378Z,71.30
2023-03-06T22:44:05.402Z,70.04
2023-03-06T22:46:34.334Z,70.62
2023-03-06T22:49:03.324Z,70.34
2023-03-06T22:51:31.965Z,70.84
2023-03-06T22:54:00.571Z,70.84
2023-03-06T22:56:30.623Z,70.33
2023-03-06T22:59:00.000Z,70.52
2023-03-06T23:01:30.126Z,69.95
2023-03-06T23:04:00.164Z,69.34
2023-03-06T23:06:30.783Z,69.70
2023-03-06T23:09:01.534Z,69.50
2023-03-06T23:11:31.755Z,69.14
2023-03-06T23:14:00.722Z,69.90
2023-03-06T23:16:29.384Z,69.42
2023-03-06T23:18:58.418Z,69.79
2023-03-06T23:21:27.098Z,69.25
2023-03-06T23:23:56.680Z,68.62
2023-03-06T23:26:27.236Z,68.65
2023-03-06T23:28:58.212Z,68.46
2023-03-06T23:31:29.053Z,68.57
2023-03-06T23:33:58.665Z,69.14
2023-03-06T23:36:28.160Z,67.97
2023-03-06T23:38:57.318Z,68.98
2023-03-06T23:41:26.202Z,68.41
2023-03-06T23:43:55.422Z,68.24
2023-03-06T23:46:25.520Z,68.28
2023-03-06T23:48:54.454Z,68.77
2023-03-06T23:51:23.578Z,68.38
2023-03-06T23:53:56.512Z,68.23
2023-03-06T23:56:25.635Z,67.83
2023-03-06T23:58:54.578Z,68.10
